sensor_id;sensor_type;location;lat;lon;timestamp;temperature;humidity
16253;DHT22;8234;41.480;2.306;2022-08-19T00:05:24;20.20;99.90
16253;DHT22;8234;41.480;2.306;2022-08-19T00:15:28;20.50;99.90
16253;DHT22;8234;41.480;2.306;2022-08-19T00:25:33;20.20;99.90
16253;DHT22;8234;41.480;2.306;2022-08-19T00:35:38;20.30;99.90
16253;DHT22;8234;41.480;2.306;2022-08-19T00:45:43;20.60;99.90
16253;DHT22;8234;41.480;2.306;2022-08-19T00:55:48;20.40;99.90
16253;DHT22;8234;41.480;2.306;2022-08-19T01:05:56;20.30;99.90
16253;DHT22;8234;41.480;2.306;2022-08-19T01:16:03;20.00;99.90
16253;DHT22;8234;41.480;2.306;2022-08-19T01:26:09;19.90;99.90
16253;DHT22;8234;41.480;2.306;2022-08-19T01:36:16;19.60;99.90
16253;DHT22;8234;41.480;2.306;2022-08-19T01:46:27;19.20;99.90
16253;DHT22;8234;41.480;2.306;2022-08-19T01:56:30;19.00;99.90
16253;DHT22;8234;41.480;2.306;2022-08-19T02:06:36;19.10;99.90
16253;DHT22;8234;41.480;2.306;2022-08-19T02:16:39;19.10;99.90
16253;DHT22;8234;41.480;2.306;2022-08-19T02:26:45;19.00;99.90
16253;DHT22;8234;41.480;2.306;2022-08-19T02:36:48;19.00;99.90
16253;DHT22;8234;41.480;2.306;2022-08-19T02:46:54;18.90;99.90
16253;DHT22;8234;41.480;2.306;2022-08-19T02:56:58;18.90;99.90
16253;DHT22;8234;41.480;2.306;2022-08-19T03:07:03;19.00;99.90
16253;DHT22;8234;41.480;2.306;2022-08-19T03:17:12;19.20;99.90
16253;DHT22;8234;41.480;2.306;2022-08-19T03:27:17;19.20;99.90
16253;DHT22;8234;41.480;2.306;2022-08-19T03:37:21;19.20;99.90
16253;DHT22;8234;41.480;2.306;2022-08-19T03:47:26;19.50;99.90
16253;DHT22;8234;41.480;2.306;2022-08-19T03:57:30;19.60;99.90
16253;DHT22;8234;41.480;2.306;2022-08-19T04:07:36;19.50;99.90
16253;DHT22;8234;41.480;2.306;2022-08-19T04:17:39;19.20;99.90
16253;DHT22;8234;41.480;2.306;2022-08-19T04:27:44;19.30;99.90
16253;DHT22;8234;41.480;2.306;2022-08-19T04:37:48;19.10;99.90
16253;DHT22;8234;41.480;2.306;2022-08-19T04:47:55;18.90;99.90
16253;DHT22;8234;41.480;2.306;2022-08-19T04:58:19;19.00;99.90
16253;DHT22;8234;41.480;2.306;2022-08-19T05:08:24;19.20;99.90
16253;DHT22;8234;41.480;2.306;2022-08-19T05:18:32;19.10;99.90
16253;DHT22;8234;41.480;2.306;2022-08-19T05:28:55;19.30;99.90
16253;DHT22;8234;41.480;2.306;2022-08-19T05:39:02;20.40;99.90
16253;DHT22;8234;41.480;2.306;2022-08-19T05:49:08;20.40;99.90
16253;DHT22;8234;41.480;2.306;2022-08-19T05:59:12;20.40;99.90
16253;DHT22;8234;41.480;2.306;2022-08-19T06:09:18;20.10;99.90
16253;DHT22;8234;41.480;2.306;2022-08-19T06:19:22;19.90;99.90
16253;DHT22;8234;41.480;2.306;2022-08-19T06:29:29;19.90;99.90
16253;DHT22;8234;41.480;2.306;2022-08-19T06:39:35;20.00;99.90
16253;DHT22;8234;41.480;2.306;2022-08-19T06:49:42;20.30;99.90
16253;DHT22;8234;41.480;2.306;2022-08-19T06:59:45;20.40;99.90
16253;DHT22;8234;41.480;2.306;2022-08-19T07:09:51;20.90;99.90
16253;DHT22;8234;41.480;2.306;2022-08-19T07:20:04;21.10;99.90
16253;DHT22;8234;41.480;2.306;2022-08-19T07:30:12;21.40;99.90
16253;DHT22;8234;41.480;2.306;2022-08-19T07:40:16;21.60;99.90
16253;DHT22;8234;41.480;2.306;2022-08-19T07:50:22;21.90;99.90
16253;DHT22;8234;41.480;2.306;2022-08-19T08:00:25;22.20;99.90
16253;DHT22;8234;41.480;2.306;2022-08-19T08:10:31;22.50;99.90
16253;DHT22;8234;41.480;2.306;2022-08-19T08:20:35;22.90;99.90
16253;DHT22;8234;41.480;2.306;2022-08-19T08:30:40;23.50;99.90
16253;DHT22;8234;41.480;2.306;2022-08-19T08:40:48;23.60;99.90
16253;DHT22;8234;41.480;2.306;2022-08-19T08:50:57;24.00;99.90
16253;DHT22;8234;41.480;2.306;2022-08-19T09:01:05;24.60;99.90
16253;DHT22;8234;41.480;2.306;2022-08-19T09:11:15;24.90;99.90
16253;DHT22;8234;41.480;2.306;2022-08-19T09:21:41;25.20;99.90
16253;DHT22;8234;41.480;2.306;2022-08-19T09:31:46;25.70;99.90
16253;DHT22;8234;41.480;2.306;2022-08-19T09:41:50;26.00;99.90
16253;DHT22;8234;41.480;2.306;2022-08-19T09:51:56;25.90;99.90
16253;DHT22;8234;41.480;2.306;2022-08-19T10:02:01;26.00;99.90
16253;DHT22;8234;41.480;2.306;2022-08-19T10:12:13;26.10;99.90
16253;DHT22;8234;41.480;2.306;2022-08-19T10:22:21;26.40;99.90
16253;DHT22;8234;41.480;2.306;2022-08-19T10:32:28;26.50;99.90
16253;DHT22;8234;41.480;2.306;2022-08-19T10:42:35;26.80;99.90
16253;DHT22;8234;41.480;2.306;2022-08-19T10:52:41;27.30;99.90
16253;DHT22;8234;41.480;2.306;2022-08-19T11:02:51;27.40;99.90
16253;DHT22;8234;41.480;2.306;2022-08-19T11:12:56;27.20;99.90
16253;DHT22;8234;41.480;2.306;2022-08-19T11:22:59;27.60;99.90
16253;DHT22;8234;41.480;2.306;2022-08-19T11:33:06;27.30;99.90
16253;DHT22;8234;41.480;2.306;2022-08-19T11:43:13;28.20;99.90
16253;DHT22;8234;41.480;2.306;2022-08-19T11:53:19;28.80;99.90
16253;DHT22;8234;41.480;2.306;2022-08-19T12:03:23;28.90;99.90
16253;DHT22;8234;41.480;2.306;2022-08-19T12:13:29;29.60;99.90
16253;DHT22;8234;41.480;2.306;2022-08-19T12:23:33;30.70;99.90
16253;DHT22;8234;41.480;2.306;2022-08-19T12:33:41;29.70;99.90
16253;DHT22;8234;41.480;2.306;2022-08-19T12:43:45;30.50;99.90
16253;DHT22;8234;41.480;2.306;2022-08-19T12:53:52;29.60;99.90
16253;DHT22;8234;41.480;2.306;2022-08-19T13:03:56;31.40;99.90
16253;DHT22;8234;41.480;2.306;2022-08-19T13:14:02;31.80;99.90
16253;DHT22;8234;41.480;2.306;2022-08-19T13:24:06;31.80;99.90
16253;DHT22;8234;41.480;2.306;2022-08-19T13:34:11;32.70;99.90
16253;DHT22;8234;41.480;2.306;2022-08-19T13:44:15;32.40;99.90
16253;DHT22;8234;41.480;2.306;2022-08-19T13:54:21;32.80;99.90
16253;DHT22;8234;41.480;2.306;2022-08-19T14:04:25;34.00;99.90
16253;DHT22;8234;41.480;2.306;2022-08-19T14:14:30;33.40;99.90
16253;DHT22;8234;41.480;2.306;2022-08-19T14:24:37;33.70;99.90
16253;DHT22;8234;41.480;2.306;2022-08-19T14:34:50;34.20;99.90
16253;DHT22;8234;41.480;2.306;2022-08-19T14:44:57;34.60;99.90
16253;DHT22;8234;41.480;2.306;2022-08-19T14:55:03;34.10;99.90
16253;DHT22;8234;41.480;2.306;2022-08-19T15:05:09;34.50;99.90
16253;DHT22;8234;41.480;2.306;2022-08-19T15:15:14;34.60;99.90
16253;DHT22;8234;41.480;2.306;2022-08-19T15:25:19;34.60;99.90
16253;DHT22;8234;41.480;2.306;2022-08-19T15:35:25;33.00;99.90
16253;DHT22;8234;41.480;2.306;2022-08-19T15:45:29;31.00;99.90
16253;DHT22;8234;41.480;2.306;2022-08-19T15:55:41;29.50;99.90
16253;DHT22;8234;41.480;2.306;2022-08-19T16:05:45;28.90;99.90
16253;DHT22;8234;41.480;2.306;2022-08-19T16:16:08;28.40;99.90
16253;DHT22;8234;41.480;2.306;2022-08-19T16:26:13;28.30;99.90
16253;DHT22;8234;41.480;2.306;2022-08-19T16:36:18;28.00;99.90
16253;DHT22;8234;41.480;2.306;2022-08-19T16:46:25;28.00;99.90
16253;DHT22;8234;41.480;2.306;2022-08-19T16:56:30;27.80;99.90
16253;DHT22;8234;41.480;2.306;2022-08-19T17:06:34;27.90;99.90
16253;DHT22;8234;41.480;2.306;2022-08-19T17:16:40;27.70;99.90
16253;DHT22;8234;41.480;2.306;2022-08-19T17:26:44;27.90;99.90
16253;DHT22;8234;41.480;2.306;2022-08-19T17:36:50;29.30;99.90
16253;DHT22;8234;41.480;2.306;2022-08-19T17:46:54;30.40;99.90
16253;DHT22;8234;41.480;2.306;2022-08-19T17:56:59;29.90;99.90
16253;DHT22;8234;41.480;2.306;2022-08-19T18:07:03;27.90;99.90
16253;DHT22;8234;41.480;2.306;2022-08-19T18:17:11;26.70;99.90
16253;DHT22;8234;41.480;2.306;2022-08-19T18:27:16;26.50;99.90
16253;DHT22;8234;41.480;2.306;2022-08-19T18:37:22;26.20;99.90
16253;DHT22;8234;41.480;2.306;2022-08-19T18:47:28;26.00;99.90
16253;DHT22;8234;41.480;2.306;2022-08-19T18:58:05;25.90;99.90
16253;DHT22;8234;41.480;2.306;2022-08-19T19:08:10;25.70;99.90
16253;DHT22;8234;41.480;2.306;2022-08-19T19:18:19;25.40;99.90
16253;DHT22;8234;41.480;2.306;2022-08-19T19:28:22;25.40;99.90
16253;DHT22;8234;41.480;2.306;2022-08-19T19:38:31;25.20;99.90
16253;DHT22;8234;41.480;2.306;2022-08-19T19:48:35;25.20;99.90
16253;DHT22;8234;41.480;2.306;2022-08-19T19:58:41;25.20;99.90
16253;DHT22;8234;41.480;2.306;2022-08-19T20:08:45;24.40;99.90
16253;DHT22;8234;41.480;2.306;2022-08-19T20:19:08;23.90;99.90
16253;DHT22;8234;41.480;2.306;2022-08-19T20:29:12;23.60;99.90
16253;DHT22;8234;41.480;2.306;2022-08-19T20:39:38;23.40;99.90
16253;DHT22;8234;41.480;2.306;2022-08-19T20:49:42;23.20;99.90
16253;DHT22;8234;41.480;2.306;2022-08-19T20:59:47;23.10;99.90
16253;DHT22;8234;41.480;2.306;2022-08-19T21:09:51;23.10;99.90
16253;DHT22;8234;41.480;2.306;2022-08-19T21:19:57;23.00;99.90
16253;DHT22;8234;41.480;2.306;2022-08-19T21:30:01;22.80;99.90
16253;DHT22;8234;41.480;2.306;2022-08-19T21:40:08;22.70;99.90
16253;DHT22;8234;41.480;2.306;2022-08-19T21:50:12;22.60;99.90
16253;DHT22;8234;41.480;2.306;2022-08-19T22:00:20;22.60;99.90
16253;DHT22;8234;41.480;2.306;2022-08-19T22:10:27;22.50;99.90
16253;DHT22;8234;41.480;2.306;2022-08-19T22:20:33;22.50;99.90
16253;DHT22;8234;41.480;2.306;2022-08-19T22:30:38;22.40;99.90
16253;DHT22;8234;41.480;2.306;2022-08-19T22:40:46;22.30;99.90
16253;DHT22;8234;41.480;2.306;2022-08-19T22:50:50;22.30;99.90
16253;DHT22;8234;41.480;2.306;2022-08-19T23:01:14;22.40;99.90
16253;DHT22;8234;41.480;2.306;2022-08-19T23:11:31;22.60;99.90
16253;DHT22;8234;41.480;2.306;2022-08-19T23:21:44;22.70;99.90
16253;DHT22;8234;41.480;2.306;2022-08-19T23:31:47;22.50;99.90
16253;DHT22;8234;41.480;2.306;2022-08-19T23:41:53;22.40;99.90
16253;DHT22;8234;41.480;2.306;2022-08-19T23:51:57;22.30;99.90
